Samus Swan — 9HA2333 — position and weather

sailwx.info

Track history (hours):
 
Tides and Currents Weather Stations Pressure Air Temp Water Temp Dewpoint Dewpoint Depression Visibility Wind Speed Wind Dir Waves Ship Positions

Samus Swan

Last reported at 2017-Jan-17 20:33 UTC. Time now 2017-Jan-17 21:19 UTC.
Position N 40°10' E 002°53'.

Length 106 m; draft 5.5 m.

Type: Tanker. MMSI: 248363000.

Date/timePositionNaut miles runAvg speedWind from/ knotsBaromVisibWave heightAir tempDewpointWater temp
2017-Jan-17 20:33N 40°10' E 002°53'1110.8
2017-Jan-17 19:33N 40°15' E 003°06'8 8.3
2017-Jan-17 18:33N 40°16' E 003°17'5 4.9
2017-Jan-17 17:33N 40°15' E 003°23'1010.4
2017-Jan-17 16:33N 40°22' E 003°33'299 7.3
2017-Jan-15 23:24N 43°04' E 009°10'1012.3
2017-Jan-15 22:33N 43°09' E 009°22'1312.6
2017-Jan-15 21:33N 43°13' E 009°38'1312.8
2017-Jan-15 20:33N 43°17' E 009°55'1312.9
2017-Jan-15 19:33N 43°25' E 010°09'7 7.0
2017-Jan-15 18:33N 43°28' E 010°18'2 1.5
2017-Jan-15 17:33N 43°30' E 010°17'0 0.1
2017-Jan-15 16:31N 43°30' E 010°17'0 0.1
2017-Jan-15 15:31N 43°30' E 010°17'0 0.0
2017-Jan-15 14:31N 43°30' E 010°17'0 0.0
2017-Jan-15 13:31N 43°30' E 010°17'0 0.0
2017-Jan-15 12:22N 43°30' E 010°17'1 0.7
2017-Jan-15 11:34N 43°30' E 010°17'3 2.8
2017-Jan-15 10:34N 43°32' E 010°17'3 2.7
2017-Jan-15 09:31N 43°35' E 010°19'0 0.0
2017-Jan-15 08:31N 43°35' E 010°19'0 0.0
2017-Jan-15 07:31N 43°35' E 010°19'0 0.0
2017-Jan-15 06:28N 43°35' E 010°19'0 0.0
2017-Jan-15 05:31N 43°35' E 010°19'0 0.0
2017-Jan-15 04:31N 43°35' E 010°19'0 0.0
2017-Jan-15 03:31N 43°35' E 010°19'0 0.0
2017-Jan-15 02:28N 43°35' E 010°19'0 0.0
2017-Jan-15 01:28N 43°35' E 010°19'0 0.0
2017-Jan-15 00:31N 43°35' E 010°19'0 0.0
2017-Jan-14 23:31N 43°35' E 010°19'0 0.0
2017-Jan-14 22:31N 43°35' E 010°19'0 0.0
2017-Jan-14 21:31N 43°35' E 010°19'0 0.0
2017-Jan-14 20:31N 43°35' E 010°19'0 0.0
2017-Jan-14 19:31N 43°35' E 010°19'0 0.0
2017-Jan-14 18:31N 43°35' E 010°19'0 0.0
2017-Jan-14 17:31N 43°35' E 010°19'0 0.0
2017-Jan-14 16:31N 43°35' E 010°19'0 0.0
2017-Jan-14 15:28N 43°35' E 010°19'0 0.0
2017-Jan-14 14:31N 43°35' E 010°19'0 0.0
2017-Jan-14 13:31N 43°35' E 010°19'0 0.0
2017-Jan-14 12:31N 43°35' E 010°19'0 0.0
2017-Jan-14 11:31N 43°35' E 010°19'0 0.0
2017-Jan-14 10:31N 43°35' E 010°19'0 0.0
2017-Jan-14 09:31N 43°35' E 010°19'0 0.0
2017-Jan-14 08:31N 43°35' E 010°19'2 2.1
2017-Jan-14 07:33N 43°33' E 010°18'7 6.8
2017-Jan-14 06:33N 43°27' E 010°15'1 1.2
2017-Jan-14 05:33N 43°26' E 010°15'2 1.9
2017-Jan-14 04:33N 43°27' E 010°13'0 0.4
2017-Jan-14 03:33N 43°26' E 010°14'1 0.3
2017-Jan-13 23:33N 43°26' E 010°16'0 0.5
2017-Jan-13 22:33N 43°26' E 010°16'1 0.7
2017-Jan-13 21:33N 43°25' E 010°17'1 1.4
2017-Jan-13 20:33N 43°24' E 010°18'1 1.3
2017-Jan-13 19:33N 43°25' E 010°17'3 3.1
2017-Jan-13 18:33N 43°27' E 010°13'3 2.9
2017-Jan-13 17:33N 43°24' E 010°15'0 0.2
2017-Jan-13 16:33N 43°24' E 010°14'1 1.3
2017-Jan-13 15:33N 43°26' E 010°14'3 3.1
2017-Jan-13 14:33N 43°23' E 010°15'1 1.3
2017-Jan-13 13:33N 43°24' E 010°16'1 1.0
2017-Jan-13 12:33N 43°25' E 010°16'1 1.3
2017-Jan-13 11:33N 43°26' E 010°16'1 1.1
2017-Jan-13 10:33N 43°27' E 010°15'2 1.7
2017-Jan-13 09:33N 43°28' E 010°16'1 0.8
2017-Jan-13 08:33N 43°29' E 010°15'9 8.8
2017-Jan-13 07:33N 43°22' E 010°06'9 9.3
2017-Jan-13 06:33N 43°17' E 009°55'39410.6
2017-Jan-11 17:31N 39°04' E 003°15'9 9.5
2017-Jan-11 16:33N 38°58' E 003°06'9 9.0
2017-Jan-11 15:32N 38°53' E 002°57'8 8.3
2017-Jan-11 14:32N 38°48' E 002°48'8 8.0
2017-Jan-11 13:33N 38°44' E 002°39'9 6.9
2017-Jan-11 12:12N 38°38' E 002°30'4 6.2
2017-Jan-11 11:31N 38°36' E 002°25'7 5.8
2017-Jan-11 10:19N 38°32' E 002°18'391 9.6
2017-Jan-09 17:33N 36°00' W 005°14'9 8.8
2017-Jan-09 16:33N 36°05' W 005°23'5 0.2
2017-Jan-08 14:11N 36°11' W 005°24'2 2.2
2017-Jan-08 13:28N 36°09' W 005°24'3 3.3
2017-Jan-08 12:33N 36°06' W 005°23'1 1.1
2017-Jan-08 11:33N 36°05' W 005°23'2 1.6
2017-Jan-08 10:33N 36°03' W 005°23'4 4.2
2017-Jan-08 09:33N 35°59' W 005°23'1310.9
2017-Jan-08 08:23N 35°55' W 005°38'1010.1
2017-Jan-08 07:21N 35°55' W 005°51'  
Track history (hours):
 
Tides and Currents Weather Stations Pressure Air Temp Water Temp Dewpoint Dewpoint Depression Visibility Wind Speed Wind Dir Waves Ship Positions

Samus Swan

Last reported at 2017-Jan-17 20:33 UTC. Time now 2017-Jan-17 21:19 UTC.
Position N 40°10' E 002°53'.

Length 106 m; draft 5.5 m.

Type: Tanker. MMSI: 248363000.

Date/timePositionNaut miles runAvg speedWind from/ knotsBaromVisibWave heightAir tempDewpointWater temp
2017-Jan-17 20:33N 40°10' E 002°53'1110.8
2017-Jan-17 19:33N 40°15' E 003°06'8 8.3
2017-Jan-17 18:33N 40°16' E 003°17'5 4.9
2017-Jan-17 17:33N 40°15' E 003°23'1010.4
2017-Jan-17 16:33N 40°22' E 003°33'299 7.3
2017-Jan-15 23:24N 43°04' E 009°10'1012.3
2017-Jan-15 22:33N 43°09' E 009°22'1312.6
2017-Jan-15 21:33N 43°13' E 009°38'1312.8
2017-Jan-15 20:33N 43°17' E 009°55'1312.9
2017-Jan-15 19:33N 43°25' E 010°09'7 7.0
2017-Jan-15 18:33N 43°28' E 010°18'2 1.5
2017-Jan-15 17:33N 43°30' E 010°17'0 0.1
2017-Jan-15 16:31N 43°30' E 010°17'0 0.1
2017-Jan-15 15:31N 43°30' E 010°17'0 0.0
2017-Jan-15 14:31N 43°30' E 010°17'0 0.0
2017-Jan-15 13:31N 43°30' E 010°17'0 0.0
2017-Jan-15 12:22N 43°30' E 010°17'1 0.7
2017-Jan-15 11:34N 43°30' E 010°17'3 2.8
2017-Jan-15 10:34N 43°32' E 010°17'3 2.7
2017-Jan-15 09:31N 43°35' E 010°19'0 0.0
2017-Jan-15 08:31N 43°35' E 010°19'0 0.0
2017-Jan-15 07:31N 43°35' E 010°19'0 0.0
2017-Jan-15 06:28N 43°35' E 010°19'0 0.0
2017-Jan-15 05:31N 43°35' E 010°19'0 0.0
2017-Jan-15 04:31N 43°35' E 010°19'0 0.0
2017-Jan-15 03:31N 43°35' E 010°19'0 0.0
2017-Jan-15 02:28N 43°35' E 010°19'0 0.0
2017-Jan-15 01:28N 43°35' E 010°19'0 0.0
2017-Jan-15 00:31N 43°35' E 010°19'0 0.0
2017-Jan-14 23:31N 43°35' E 010°19'0 0.0
2017-Jan-14 22:31N 43°35' E 010°19'0 0.0
2017-Jan-14 21:31N 43°35' E 010°19'0 0.0
2017-Jan-14 20:31N 43°35' E 010°19'0 0.0
2017-Jan-14 19:31N 43°35' E 010°19'0 0.0
2017-Jan-14 18:31N 43°35' E 010°19'0 0.0
2017-Jan-14 17:31N 43°35' E 010°19'0 0.0
2017-Jan-14 16:31N 43°35' E 010°19'0 0.0
2017-Jan-14 15:28N 43°35' E 010°19'0 0.0
2017-Jan-14 14:31N 43°35' E 010°19'0 0.0
2017-Jan-14 13:31N 43°35' E 010°19'0 0.0
2017-Jan-14 12:31N 43°35' E 010°19'0 0.0
2017-Jan-14 11:31N 43°35' E 010°19'0 0.0
2017-Jan-14 10:31N 43°35' E 010°19'0 0.0
2017-Jan-14 09:31N 43°35' E 010°19'0 0.0
2017-Jan-14 08:31N 43°35' E 010°19'2 2.1
2017-Jan-14 07:33N 43°33' E 010°18'7 6.8
2017-Jan-14 06:33N 43°27' E 010°15'1 1.2
2017-Jan-14 05:33N 43°26' E 010°15'2 1.9
2017-Jan-14 04:33N 43°27' E 010°13'0 0.4
2017-Jan-14 03:33N 43°26' E 010°14'1 0.3
2017-Jan-13 23:33N 43°26' E 010°16'0 0.5
2017-Jan-13 22:33N 43°26' E 010°16'1 0.7
2017-Jan-13 21:33N 43°25' E 010°17'1 1.4
2017-Jan-13 20:33N 43°24' E 010°18'1 1.3
2017-Jan-13 19:33N 43°25' E 010°17'3 3.1
2017-Jan-13 18:33N 43°27' E 010°13'3 2.9
2017-Jan-13 17:33N 43°24' E 010°15'0 0.2
2017-Jan-13 16:33N 43°24' E 010°14'1 1.3
2017-Jan-13 15:33N 43°26' E 010°14'3 3.1
2017-Jan-13 14:33N 43°23' E 010°15'1 1.3
2017-Jan-13 13:33N 43°24' E 010°16'1 1.0
2017-Jan-13 12:33N 43°25' E 010°16'1 1.3
2017-Jan-13 11:33N 43°26' E 010°16'1 1.1
2017-Jan-13 10:33N 43°27' E 010°15'2 1.7
2017-Jan-13 09:33N 43°28' E 010°16'1 0.8
2017-Jan-13 08:33N 43°29' E 010°15'9 8.8
2017-Jan-13 07:33N 43°22' E 010°06'9 9.3
2017-Jan-13 06:33N 43°17' E 009°55'39410.6
2017-Jan-11 17:31N 39°04' E 003°15'9 9.5
2017-Jan-11 16:33N 38°58' E 003°06'9 9.0
2017-Jan-11 15:32N 38°53' E 002°57'8 8.3
2017-Jan-11 14:32N 38°48' E 002°48'8 8.0
2017-Jan-11 13:33N 38°44' E 002°39'9 6.9
2017-Jan-11 12:12N 38°38' E 002°30'4 6.2
2017-Jan-11 11:31N 38°36' E 002°25'7 5.8
2017-Jan-11 10:19N 38°32' E 002°18'391 9.6
2017-Jan-09 17:33N 36°00' W 005°14'9 8.8
2017-Jan-09 16:33N 36°05' W 005°23'5 0.2
2017-Jan-08 14:11N 36°11' W 005°24'2 2.2
2017-Jan-08 13:28N 36°09' W 005°24'3 3.3
2017-Jan-08 12:33N 36°06' W 005°23'1 1.1
2017-Jan-08 11:33N 36°05' W 005°23'2 1.6
2017-Jan-08 10:33N 36°03' W 005°23'4 4.2
2017-Jan-08 09:33N 35°59' W 005°23'1310.9
2017-Jan-08 08:23N 35°55' W 005°38'1010.1
2017-Jan-08 07:21N 35°55' W 005°51'  

Dump ship's entire track history